sensor_id;sensor_type;location;lat;lon;timestamp;P1;P2;P0
21358;PMS7003;13506;50.852;20.632;2022-07-30T00:01:39;8.00;7.20;4.60
21358;PMS7003;13506;50.852;20.632;2022-07-30T00:04:07;10.00;8.80;5.00
21358;PMS7003;13506;50.852;20.632;2022-07-30T00:06:34;8.80;8.40;5.40
21358;PMS7003;13506;50.852;20.632;2022-07-30T00:09:04;6.80;6.80;4.40
21358;PMS7003;13506;50.852;20.632;2022-07-30T00:11:31;8.00;8.00;5.00
21358;PMS7003;13506;50.852;20.632;2022-07-30T00:13:59;10.20;7.60;4.60
21358;PMS7003;13506;50.852;20.632;2022-07-30T00:16:27;8.00;7.60;4.00
21358;PMS7003;13506;50.852;20.632;2022-07-30T00:18:55;10.20;8.80;4.80
21358;PMS7003;13506;50.852;20.632;2022-07-30T00:21:23;8.40;7.80;4.20
21358;PMS7003;13506;50.852;20.632;2022-07-30T00:23:50;9.20;8.60;5.60
21358;PMS7003;13506;50.852;20.632;2022-07-30T00:26:18;9.00;8.40;5.00
21358;PMS7003;13506;50.852;20.632;2022-07-30T00:28:45;9.80;8.20;5.00
21358;PMS7003;13506;50.852;20.632;2022-07-30T00:31:13;8.20;8.20;5.00
21358;PMS7003;13506;50.852;20.632;2022-07-30T00:33:41;11.60;9.40;4.40
21358;PMS7003;13506;50.852;20.632;2022-07-30T00:36:10;7.80;7.80;4.80
21358;PMS7003;13506;50.852;20.632;2022-07-30T00:38:37;9.60;9.60;5.80
21358;PMS7003;13506;50.852;20.632;2022-07-30T00:41:05;8.60;8.20;5.20
21358;PMS7003;13506;50.852;20.632;2022-07-30T00:43:33;8.80;8.80;5.00
21358;PMS7003;13506;50.852;20.632;2022-07-30T00:46:00;7.80;7.80;4.60
21358;PMS7003;13506;50.852;20.632;2022-07-30T00:48:28;8.40;8.40;5.40
21358;PMS7003;13506;50.852;20.632;2022-07-30T00:50:56;11.00;9.40;4.80
21358;PMS7003;13506;50.852;20.632;2022-07-30T00:53:25;10.00;9.20;5.80
21358;PMS7003;13506;50.852;20.632;2022-07-30T00:55:53;9.60;8.00;5.00
21358;PMS7003;13506;50.852;20.632;2022-07-30T00:58:20;11.40;10.80;7.00
21358;PMS7003;13506;50.852;20.632;2022-07-30T01:00:48;9.40;8.20;5.00
21358;PMS7003;13506;50.852;20.632;2022-07-30T01:03:16;9.80;9.80;6.00
21358;PMS7003;13506;50.852;20.632;2022-07-30T01:05:43;9.00;9.00;6.00
21358;PMS7003;13506;50.852;20.632;2022-07-30T01:08:11;10.00;9.00;5.00
21358;PMS7003;13506;50.852;20.632;2022-07-30T01:10:40;10.40;10.40;6.20
21358;PMS7003;13506;50.852;20.632;2022-07-30T01:13:08;9.00;8.60;5.00
21358;PMS7003;13506;50.852;20.632;2022-07-30T01:15:36;10.00;10.00;4.80
21358;PMS7003;13506;50.852;20.632;2022-07-30T01:18:05;10.20;9.80;6.60
21358;PMS7003;13506;50.852;20.632;2022-07-30T01:20:37;11.00;11.00;7.40
21358;PMS7003;13506;50.852;20.632;2022-07-30T01:23:12;10.60;10.60;6.40
21358;PMS7003;13506;50.852;20.632;2022-07-30T01:25:53;12.20;10.80;6.40
21358;PMS7003;13506;50.852;20.632;2022-07-30T01:28:25;10.40;10.40;6.80
21358;PMS7003;13506;50.852;20.632;2022-07-30T01:30:57;10.40;10.40;7.00
21358;PMS7003;13506;50.852;20.632;2022-07-30T01:33:28;9.80;9.80;6.40
21358;PMS7003;13506;50.852;20.632;2022-07-30T01:35:59;12.00;9.40;6.20
21358;PMS7003;13506;50.852;20.632;2022-07-30T01:38:29;9.80;9.80;6.00
21358;PMS7003;13506;50.852;20.632;2022-07-30T01:41:00;10.80;10.20;7.00
21358;PMS7003;13506;50.852;20.632;2022-07-30T01:43:28;13.60;11.00;6.20
21358;PMS7003;13506;50.852;20.632;2022-07-30T01:45:59;12.40;12.00;7.00
21358;PMS7003;13506;50.852;20.632;2022-07-30T01:48:30;13.00;11.40;7.00
21358;PMS7003;13506;50.852;20.632;2022-07-30T01:51:05;11.00;10.20;7.00
21358;PMS7003;13506;50.852;20.632;2022-07-30T01:53:35;11.80;10.80;7.00
21358;PMS7003;13506;50.852;20.632;2022-07-30T01:56:08;12.60;12.60;7.80
21358;PMS7003;13506;50.852;20.632;2022-07-30T01:58:39;13.00;11.20;6.40
21358;PMS7003;13506;50.852;20.632;2022-07-30T02:01:19;11.80;11.00;7.40
21358;PMS7003;13506;50.852;20.632;2022-07-30T02:03:47;11.60;10.60;7.00
21358;PMS7003;13506;50.852;20.632;2022-07-30T02:06:16;13.00;10.60;7.20
21358;PMS7003;13506;50.852;20.632;2022-07-30T02:08:50;11.00;11.00;7.40
21358;PMS7003;13506;50.852;20.632;2022-07-30T02:11:23;12.60;12.20;7.60
21358;PMS7003;13506;50.852;20.632;2022-07-30T02:14:12;11.40;11.00;6.80
21358;PMS7003;13506;50.852;20.632;2022-07-30T02:16:50;10.40;9.60;6.00
21358;PMS7003;13506;50.852;20.632;2022-07-30T02:19:22;12.20;11.20;7.60
21358;PMS7003;13506;50.852;20.632;2022-07-30T02:21:57;10.80;9.80;7.40
21358;PMS7003;13506;50.852;20.632;2022-07-30T02:24:31;11.20;11.20;7.80
21358;PMS7003;13506;50.852;20.632;2022-07-30T02:27:02;10.60;9.20;5.40
21358;PMS7003;13506;50.852;20.632;2022-07-30T02:29:34;13.60;10.80;6.80
21358;PMS7003;13506;50.852;20.632;2022-07-30T02:32:05;14.40;11.60;7.00
21358;PMS7003;13506;50.852;20.632;2022-07-30T02:34:38;14.00;12.80;6.80
21358;PMS7003;13506;50.852;20.632;2022-07-30T02:37:09;15.40;11.00;7.00
21358;PMS7003;13506;50.852;20.632;2022-07-30T02:39:40;12.20;11.00;7.00
21358;PMS7003;13506;50.852;20.632;2022-07-30T02:42:10;12.60;12.20;7.80
21358;PMS7003;13506;50.852;20.632;2022-07-30T02:44:41;15.20;12.40;9.40
21358;PMS7003;13506;50.852;20.632;2022-07-30T02:47:13;13.20;10.40;7.80
21358;PMS7003;13506;50.852;20.632;2022-07-30T02:49:51;10.80;10.80;6.60
21358;PMS7003;13506;50.852;20.632;2022-07-30T02:52:20;12.20;11.60;7.00
21358;PMS7003;13506;50.852;20.632;2022-07-30T02:54:51;12.20;11.20;7.40
21358;PMS7003;13506;50.852;20.632;2022-07-30T02:57:24;13.40;12.20;8.00
21358;PMS7003;13506;50.852;20.632;2022-07-30T02:59:53;13.40;12.00;8.00
21358;PMS7003;13506;50.852;20.632;2022-07-30T03:02:23;14.00;13.00;8.00
21358;PMS7003;13506;50.852;20.632;2022-07-30T03:04:51;13.20;12.60;8.60
21358;PMS7003;13506;50.852;20.632;2022-07-30T03:07:20;16.00;12.80;7.80
21358;PMS7003;13506;50.852;20.632;2022-07-30T03:09:48;11.40;11.40;6.80
21358;PMS7003;13506;50.852;20.632;2022-07-30T03:12:18;12.00;11.00;7.00
21358;PMS7003;13506;50.852;20.632;2022-07-30T03:14:51;12.20;11.20;7.20
21358;PMS7003;13506;50.852;20.632;2022-07-30T03:17:19;13.40;12.40;6.80
21358;PMS7003;13506;50.852;20.632;2022-07-30T03:19:51;13.40;12.20;7.60
21358;PMS7003;13506;50.852;20.632;2022-07-30T03:22:21;15.40;11.20;7.60
21358;PMS7003;13506;50.852;20.632;2022-07-30T03:24:52;13.00;10.60;7.00
21358;PMS7003;13506;50.852;20.632;2022-07-30T03:27:23;12.40;10.40;6.80
21358;PMS7003;13506;50.852;20.632;2022-07-30T03:29:53;13.60;12.20;8.40
21358;PMS7003;13506;50.852;20.632;2022-07-30T03:32:23;12.60;11.80;8.40
21358;PMS7003;13506;50.852;20.632;2022-07-30T03:34:51;14.80;13.20;8.20
21358;PMS7003;13506;50.852;20.632;2022-07-30T03:37:19;12.00;11.40;7.20
21358;PMS7003;13506;50.852;20.632;2022-07-30T03:39:46;13.20;11.20;6.20
21358;PMS7003;13506;50.852;20.632;2022-07-30T03:42:14;14.00;13.00;7.80
21358;PMS7003;13506;50.852;20.632;2022-07-30T03:44:43;10.40;9.80;6.80
21358;PMS7003;13506;50.852;20.632;2022-07-30T03:47:12;12.20;12.20;8.00
21358;PMS7003;13506;50.852;20.632;2022-07-30T03:49:45;14.40;12.20;8.00
21358;PMS7003;13506;50.852;20.632;2022-07-30T03:52:13;13.00;13.00;8.00
21358;PMS7003;13506;50.852;20.632;2022-07-30T03:54:41;14.40;13.00;8.00
21358;PMS7003;13506;50.852;20.632;2022-07-30T03:57:29;14.60;13.80;8.00
21358;PMS7003;13506;50.852;20.632;2022-07-30T03:59:59;11.00;11.00;7.20
21358;PMS7003;13506;50.852;20.632;2022-07-30T04:02:28;11.20;11.20;7.00
21358;PMS7003;13506;50.852;20.632;2022-07-30T04:05:13;12.20;11.40;8.20
21358;PMS7003;13506;50.852;20.632;2022-07-30T04:07:42;12.50;11.50;8.50
21358;PMS7003;13506;50.852;20.632;2022-07-30T04:10:10;13.60;11.60;7.00
21358;PMS7003;13506;50.852;20.632;2022-07-30T04:12:56;11.80;10.80;6.20
21358;PMS7003;13506;50.852;20.632;2022-07-30T04:15:28;16.00;13.00;8.00
21358;PMS7003;13506;50.852;20.632;2022-07-30T04:17:57;12.60;11.60;7.80
21358;PMS7003;13506;50.852;20.632;2022-07-30T04:20:30;12.40;11.00;7.20
21358;PMS7003;13506;50.852;20.632;2022-07-30T04:23:05;13.80;12.80;8.00
21358;PMS7003;13506;50.852;20.632;2022-07-30T04:25:35;14.00;11.00;7.00
21358;PMS7003;13506;50.852;20.632;2022-07-30T04:28:04;12.60;12.60;8.20
21358;PMS7003;13506;50.852;20.632;2022-07-30T04:30:31;12.20;12.20;8.00
21358;PMS7003;13506;50.852;20.632;2022-07-30T04:33:01;10.60;10.20;6.40
21358;PMS7003;13506;50.852;20.632;2022-07-30T04:35:50;13.00;13.00;8.00
21358;PMS7003;13506;50.852;20.632;2022-07-30T04:38:25;12.60;12.60;8.20
21358;PMS7003;13506;50.852;20.632;2022-07-30T04:40:53;13.20;13.20;8.40
21358;PMS7003;13506;50.852;20.632;2022-07-30T04:43:21;13.00;13.00;7.60
21358;PMS7003;13506;50.852;20.632;2022-07-30T04:45:49;13.50;11.50;6.25
21358;PMS7003;13506;50.852;20.632;2022-07-30T04:48:18;15.20;14.40;8.80
21358;PMS7003;13506;50.852;20.632;2022-07-30T04:50:52;12.00;11.40;8.00
21358;PMS7003;13506;50.852;20.632;2022-07-30T04:53:25;17.60;13.00;7.80
21358;PMS7003;13506;50.852;20.632;2022-07-30T04:55:58;15.20;13.00;8.80
21358;PMS7003;13506;50.852;20.632;2022-07-30T04:58:29;13.40;13.40;8.00
21358;PMS7003;13506;50.852;20.632;2022-07-30T05:00:59;10.75;10.50;7.50
21358;PMS7003;13506;50.852;20.632;2022-07-30T05:03:31;13.80;12.80;8.20
21358;PMS7003;13506;50.852;20.632;2022-07-30T05:06:03;13.40;12.20;7.00
21358;PMS7003;13506;50.852;20.632;2022-07-30T05:08:35;18.00;13.50;8.00
21358;PMS7003;13506;50.852;20.632;2022-07-30T05:11:09;12.60;12.20;8.00
21358;PMS7003;13506;50.852;20.632;2022-07-30T05:13:39;14.00;11.25;7.75
21358;PMS7003;13506;50.852;20.632;2022-07-30T05:16:09;14.80;11.40;7.20
21358;PMS7003;13506;50.852;20.632;2022-07-30T05:18:39;13.80;11.40;7.00
21358;PMS7003;13506;50.852;20.632;2022-07-30T05:21:09;13.00;10.00;7.00
21358;PMS7003;13506;50.852;20.632;2022-07-30T05:23:43;12.40;12.00;8.00
21358;PMS7003;13506;50.852;20.632;2022-07-30T05:26:17;12.80;12.40;8.20
21358;PMS7003;13506;50.852;20.632;2022-07-30T05:28:48;13.60;12.60;7.80
21358;PMS7003;13506;50.852;20.632;2022-07-30T05:31:18;13.50;11.50;7.75
21358;PMS7003;13506;50.852;20.632;2022-07-30T05:33:55;13.00;13.00;8.00
21358;PMS7003;13506;50.852;20.632;2022-07-30T05:36:33;15.25;13.00;8.75
21358;PMS7003;13506;50.852;20.632;2022-07-30T05:39:02;16.25;13.25;7.00
21358;PMS7003;13506;50.852;20.632;2022-07-30T05:41:35;12.25;12.25;9.00
21358;PMS7003;13506;50.852;20.632;2022-07-30T05:44:29;14.80;12.80;8.40
21358;PMS7003;13506;50.852;20.632;2022-07-30T05:46:57;14.60;11.80;8.00
21358;PMS7003;13506;50.852;20.632;2022-07-30T05:49:26;13.00;13.00;8.00
21358;PMS7003;13506;50.852;20.632;2022-07-30T05:52:02;16.75;13.25;8.00
21358;PMS7003;13506;50.852;20.632;2022-07-30T05:54:30;15.00;11.40;7.40
21358;PMS7003;13506;50.852;20.632;2022-07-30T05:57:17;13.75;13.75;9.00
21358;PMS7003;13506;50.852;20.632;2022-07-30T05:59:45;13.20;11.60;7.00
21358;PMS7003;13506;50.852;20.632;2022-07-30T06:02:21;13.00;11.80;7.80
21358;PMS7003;13506;50.852;20.632;2022-07-30T06:05:02;14.25;11.25;7.00
21358;PMS7003;13506;50.852;20.632;2022-07-30T06:07:30;17.75;14.00;9.00
21358;PMS7003;13506;50.852;20.632;2022-07-30T06:09:59;15.75;14.25;8.50
21358;PMS7003;13506;50.852;20.632;2022-07-30T06:12:27;13.75;13.50;9.00
21358;PMS7003;13506;50.852;20.632;2022-07-30T06:14:56;14.50;12.50;8.25
21358;PMS7003;13506;50.852;20.632;2022-07-30T06:17:39;13.50;12.00;8.00
21358;PMS7003;13506;50.852;20.632;2022-07-30T06:20:33;14.75;13.25;7.00
21358;PMS7003;13506;50.852;20.632;2022-07-30T06:23:21;14.00;14.00;9.75
21358;PMS7003;13506;50.852;20.632;2022-07-30T06:26:21;14.50;13.50;9.00
21358;PMS7003;13506;50.852;20.632;2022-07-30T06:28:49;13.00;11.75;7.75
21358;PMS7003;13506;50.852;20.632;2022-07-30T06:31:28;13.75;12.25;8.50
21358;PMS7003;13506;50.852;20.632;2022-07-30T06:33:56;13.75;12.75;9.00
21358;PMS7003;13506;50.852;20.632;2022-07-30T06:36:28;15.00;15.00;9.50
21358;PMS7003;13506;50.852;20.632;2022-07-30T06:38:59;17.00;14.50;10.00
21358;PMS7003;13506;50.852;20.632;2022-07-30T06:42:03;14.75;14.75;9.25
21358;PMS7003;13506;50.852;20.632;2022-07-30T06:45:00;17.75;14.25;8.50
21358;PMS7003;13506;50.852;20.632;2022-07-30T06:47:47;16.00;14.75;9.50
21358;PMS7003;13506;50.852;20.632;2022-07-30T06:50:15;14.25;12.00;8.00
21358;PMS7003;13506;50.852;20.632;2022-07-30T06:52:46;13.75;13.00;9.00
21358;PMS7003;13506;50.852;20.632;2022-07-30T06:55:13;13.00;13.00;8.75
21358;PMS7003;13506;50.852;20.632;2022-07-30T06:57:46;15.25;15.00;9.25
21358;PMS7003;13506;50.852;20.632;2022-07-30T07:00:37;15.00;13.75;9.25
21358;PMS7003;13506;50.852;20.632;2022-07-30T07:03:11;16.25;16.00;10.00
21358;PMS7003;13506;50.852;20.632;2022-07-30T07:05:39;16.00;16.00;10.25
21358;PMS7003;13506;50.852;20.632;2022-07-30T07:08:08;13.00;12.00;7.75
21358;PMS7003;13506;50.852;20.632;2022-07-30T07:10:42;14.75;14.00;9.00
21358;PMS7003;13506;50.852;20.632;2022-07-30T07:13:14;15.00;14.00;10.00
21358;PMS7003;13506;50.852;20.632;2022-07-30T07:15:41;16.75;16.75;10.75
21358;PMS7003;13506;50.852;20.632;2022-07-30T07:18:14;14.25;13.75;10.00
21358;PMS7003;13506;50.852;20.632;2022-07-30T07:20:59;15.75;15.50;10.25
21358;PMS7003;13506;50.852;20.632;2022-07-30T07:23:29;16.75;16.75;11.75
21358;PMS7003;13506;50.852;20.632;2022-07-30T07:25:57;20.50;17.25;11.00
21358;PMS7003;13506;50.852;20.632;2022-07-30T07:28:25;19.75;17.75;12.50
21358;PMS7003;13506;50.852;20.632;2022-07-30T07:30:53;18.00;17.75;11.25
21358;PMS7003;13506;50.852;20.632;2022-07-30T07:33:21;15.00;14.00;9.75
21358;PMS7003;13506;50.852;20.632;2022-07-30T07:35:48;15.50;15.00;10.00
21358;PMS7003;13506;50.852;20.632;2022-07-30T07:38:25;19.25;17.50;11.00
21358;PMS7003;13506;50.852;20.632;2022-07-30T07:40:57;17.00;16.75;11.00
21358;PMS7003;13506;50.852;20.632;2022-07-30T07:43:26;19.00;18.00;13.00
21358;PMS7003;13506;50.852;20.632;2022-07-30T07:45:56;15.25;15.00;10.00
21358;PMS7003;13506;50.852;20.632;2022-07-30T07:48:27;19.25;17.50;12.25
21358;PMS7003;13506;50.852;20.632;2022-07-30T07:51:13;16.00;16.00;11.00
21358;PMS7003;13506;50.852;20.632;2022-07-30T07:53:41;16.25;15.50;10.50
21358;PMS7003;13506;50.852;20.632;2022-07-30T07:56:10;15.00;14.25;10.25
21358;PMS7003;13506;50.852;20.632;2022-07-30T07:58:40;16.75;15.75;11.75
21358;PMS7003;13506;50.852;20.632;2022-07-30T08:01:10;22.75;20.75;13.50
21358;PMS7003;13506;50.852;20.632;2022-07-30T08:03:57;15.25;15.00;10.75
21358;PMS7003;13506;50.852;20.632;2022-07-30T08:06:43;18.25;18.00;11.50
21358;PMS7003;13506;50.852;20.632;2022-07-30T08:09:30;19.00;17.00;10.50
21358;PMS7003;13506;50.852;20.632;2022-07-30T08:12:23;19.00;18.00;11.25
21358;PMS7003;13506;50.852;20.632;2022-07-30T08:15:12;15.50;14.75;10.25
21358;PMS7003;13506;50.852;20.632;2022-07-30T08:17:57;17.50;15.50;11.00
21358;PMS7003;13506;50.852;20.632;2022-07-30T08:20:37;18.75;18.00;12.50
21358;PMS7003;13506;50.852;20.632;2022-07-30T08:23:05;16.75;16.00;11.50
21358;PMS7003;13506;50.852;20.632;2022-07-30T08:25:33;21.75;19.25;13.00
21358;PMS7003;13506;50.852;20.632;2022-07-30T08:28:04;19.00;18.00;11.50
21358;PMS7003;13506;50.852;20.632;2022-07-30T08:30:32;17.00;14.50;9.75
21358;PMS7003;13506;50.852;20.632;2022-07-30T08:32:59;19.50;16.75;11.00
21358;PMS7003;13506;50.852;20.632;2022-07-30T08:35:28;17.00;15.50;11.00
21358;PMS7003;13506;50.852;20.632;2022-07-30T08:37:56;20.25;17.75;11.00
21358;PMS7003;13506;50.852;20.632;2022-07-30T08:40:25;20.50;17.50;11.50
21358;PMS7003;13506;50.852;20.632;2022-07-30T08:43:02;20.00;16.25;11.25
21358;PMS7003;13506;50.852;20.632;2022-07-30T08:45:34;18.00;16.00;12.00
21358;PMS7003;13506;50.852;20.632;2022-07-30T08:48:14;15.75;15.75;10.00
21358;PMS7003;13506;50.852;20.632;2022-07-30T08:50:45;18.50;17.50;12.00
21358;PMS7003;13506;50.852;20.632;2022-07-30T08:53:33;22.50;19.25;11.75
21358;PMS7003;13506;50.852;20.632;2022-07-30T08:56:02;18.00;16.50;11.75
21358;PMS7003;13506;50.852;20.632;2022-07-30T08:58:32;19.00;15.25;10.75
21358;PMS7003;13506;50.852;20.632;2022-07-30T09:01:01;20.50;17.00;10.00
21358;PMS7003;13506;50.852;20.632;2022-07-30T09:03:29;15.50;14.75;10.25
21358;PMS7003;13506;50.852;20.632;2022-07-30T09:06:00;17.75;15.00;11.00
21358;PMS7003;13506;50.852;20.632;2022-07-30T09:08:28;19.75;16.00;11.25
21358;PMS7003;13506;50.852;20.632;2022-07-30T09:10:57;19.00;17.50;12.00
21358;PMS7003;13506;50.852;20.632;2022-07-30T09:13:26;19.50;18.50;12.00
21358;PMS7003;13506;50.852;20.632;2022-07-30T09:16:00;18.50;16.50;11.50
21358;PMS7003;13506;50.852;20.632;2022-07-30T09:18:30;16.75;15.00;9.50
21358;PMS7003;13506;50.852;20.632;2022-07-30T09:21:12;17.00;15.50;10.75
21358;PMS7003;13506;50.852;20.632;2022-07-30T09:23:54;15.00;15.00;9.00
21358;PMS7003;13506;50.852;20.632;2022-07-30T09:26:54;15.75;14.50;10.00
21358;PMS7003;13506;50.852;20.632;2022-07-30T09:29:56;17.75;17.75;11.25
21358;PMS7003;13506;50.852;20.632;2022-07-30T09:32:48;17.25;16.50;10.50
21358;PMS7003;13506;50.852;20.632;2022-07-30T09:35:29;16.00;16.00;11.00
21358;PMS7003;13506;50.852;20.632;2022-07-30T09:38:10;19.25;17.00;10.25
21358;PMS7003;13506;50.852;20.632;2022-07-30T09:40:50;16.50;16.50;11.00
21358;PMS7003;13506;50.852;20.632;2022-07-30T09:43:41;18.25;16.75;10.25
21358;PMS7003;13506;50.852;20.632;2022-07-30T09:46:18;16.75;16.75;11.25
21358;PMS7003;13506;50.852;20.632;2022-07-30T09:48:48;16.25;16.00;10.00
21358;PMS7003;13506;50.852;20.632;2022-07-30T09:51:15;16.00;16.00;10.75
21358;PMS7003;13506;50.852;20.632;2022-07-30T09:53:53;18.50;17.50;12.00
21358;PMS7003;13506;50.852;20.632;2022-07-30T09:56:24;19.00;16.50;11.25
21358;PMS7003;13506;50.852;20.632;2022-07-30T09:58:54;19.25;18.50;11.75
21358;PMS7003;13506;50.852;20.632;2022-07-30T10:01:21;18.25;17.00;10.50
21358;PMS7003;13506;50.852;20.632;2022-07-30T10:04:09;17.50;17.50;11.50
21358;PMS7003;13506;50.852;20.632;2022-07-30T10:06:59;16.25;15.75;10.75
21358;PMS7003;13506;50.852;20.632;2022-07-30T10:09:35;19.00;18.75;12.50
21358;PMS7003;13506;50.852;20.632;2022-07-30T10:12:03;17.75;16.25;12.75
21358;PMS7003;13506;50.852;20.632;2022-07-30T10:14:36;19.25;16.25;10.75
21358;PMS7003;13506;50.852;20.632;2022-07-30T10:17:04;19.00;18.00;11.25
21358;PMS7003;13506;50.852;20.632;2022-07-30T10:19:34;15.25;14.75;11.00
21358;PMS7003;13506;50.852;20.632;2022-07-30T10:22:23;21.00;18.50;12.00
21358;PMS7003;13506;50.852;20.632;2022-07-30T10:25:21;16.50;16.50;11.00
21358;PMS7003;13506;50.852;20.632;2022-07-30T10:28:08;18.00;18.00;11.75
21358;PMS7003;13506;50.852;20.632;2022-07-30T10:30:37;16.25;15.50;11.00
21358;PMS7003;13506;50.852;20.632;2022-07-30T10:33:05;16.75;14.00;10.25
21358;PMS7003;13506;50.852;20.632;2022-07-30T10:35:35;16.00;15.25;10.00
21358;PMS7003;13506;50.852;20.632;2022-07-30T10:38:02;16.00;15.50;11.00
21358;PMS7003;13506;50.852;20.632;2022-07-30T10:40:37;19.75;16.25;10.75
21358;PMS7003;13506;50.852;20.632;2022-07-30T10:43:21;18.00;15.25;10.25
21358;PMS7003;13506;50.852;20.632;2022-07-30T10:46:29;15.00;14.00;10.00
21358;PMS7003;13506;50.852;20.632;2022-07-30T10:49:09;16.75;16.00;10.75
21358;PMS7003;13506;50.852;20.632;2022-07-30T10:51:44;14.75;14.50;10.00
21358;PMS7003;13506;50.852;20.632;2022-07-30T10:57:05;18.75;17.75;11.75
21358;PMS7003;13506;50.852;20.632;2022-07-30T11:02:39;17.75;17.50;12.50
21358;PMS7003;13506;50.852;20.632;2022-07-30T11:05:48;20.00;18.00;13.00
21358;PMS7003;13506;50.852;20.632;2022-07-30T11:08:34;20.25;17.50;12.25
21358;PMS7003;13506;50.852;20.632;2022-07-30T11:11:05;22.00;20.25;14.50
21358;PMS7003;13506;50.852;20.632;2022-07-30T11:14:12;21.25;20.25;13.25
21358;PMS7003;13506;50.852;20.632;2022-07-30T11:16:58;15.25;15.25;11.25
21358;PMS7003;13506;50.852;20.632;2022-07-30T11:19:27;20.75;19.50;12.00
21358;PMS7003;13506;50.852;20.632;2022-07-30T11:24:57;18.00;18.00;13.00
21358;PMS7003;13506;50.852;20.632;2022-07-30T11:27:34;18.50;18.25;12.00
21358;PMS7003;13506;50.852;20.632;2022-07-30T11:30:05;20.00;19.00;12.50
21358;PMS7003;13506;50.852;20.632;2022-07-30T11:33:21;20.00;18.50;13.00
21358;PMS7003;13506;50.852;20.632;2022-07-30T11:36:05;20.50;18.50;13.00
21358;PMS7003;13506;50.852;20.632;2022-07-30T11:38:51;19.25;16.25;11.50
21358;PMS7003;13506;50.852;20.632;2022-07-30T11:41:23;21.00;19.00;13.00
21358;PMS7003;13506;50.852;20.632;2022-07-30T11:46:55;22.50;21.25;15.00
21358;PMS7003;13506;50.852;20.632;2022-07-30T11:49:22;23.75;20.00;13.25
21358;PMS7003;13506;50.852;20.632;2022-07-30T11:51:50;22.00;19.50;12.00
21358;PMS7003;13506;50.852;20.632;2022-07-30T11:54:17;23.25;20.00;12.25
21358;PMS7003;13506;50.852;20.632;2022-07-30T11:56:50;19.50;18.00;12.00
21358;PMS7003;13506;50.852;20.632;2022-07-30T11:59:22;19.00;19.00;13.00
21358;PMS7003;13506;50.852;20.632;2022-07-30T12:01:50;22.00;21.00;14.25
21358;PMS7003;13506;50.852;20.632;2022-07-30T12:04:20;18.75;18.25;13.25
21358;PMS7003;13506;50.852;20.632;2022-07-30T12:06:48;18.75;18.50;13.50
21358;PMS7003;13506;50.852;20.632;2022-07-30T12:09:23;21.00;20.25;14.75
21358;PMS7003;13506;50.852;20.632;2022-07-30T12:11:55;20.50;19.25;13.50
21358;PMS7003;13506;50.852;20.632;2022-07-30T12:14:22;20.75;19.25;14.00
21358;PMS7003;13506;50.852;20.632;2022-07-30T12:16:51;20.00;19.50;14.75
21358;PMS7003;13506;50.852;20.632;2022-07-30T12:19:19;18.25;18.25;13.00
21358;PMS7003;13506;50.852;20.632;2022-07-30T12:21:47;22.00;19.50;13.25
21358;PMS7003;13506;50.852;20.632;2022-07-30T12:24:15;20.75;18.50;13.00
21358;PMS7003;13506;50.852;20.632;2022-07-30T12:26:51;20.00;19.00;13.25
21358;PMS7003;13506;50.852;20.632;2022-07-30T12:29:30;25.25;23.25;14.75
21358;PMS7003;13506;50.852;20.632;2022-07-30T12:31:58;22.75;21.25;14.00
21358;PMS7003;13506;50.852;20.632;2022-07-30T12:34:26;22.00;19.50;13.75
21358;PMS7003;13506;50.852;20.632;2022-07-30T12:36:54;23.25;21.25;13.25
21358;PMS7003;13506;50.852;20.632;2022-07-30T12:39:32;21.75;21.00;13.25
21358;PMS7003;13506;50.852;20.632;2022-07-30T12:41:59;22.75;19.25;13.00
21358;PMS7003;13506;50.852;20.632;2022-07-30T12:44:38;24.00;21.50;15.00
21358;PMS7003;13506;50.852;20.632;2022-07-30T12:47:20;23.50;22.25;15.00
21358;PMS7003;13506;50.852;20.632;2022-07-30T12:49:50;22.75;21.50;15.00
21358;PMS7003;13506;50.852;20.632;2022-07-30T12:52:21;25.25;22.00;15.25
21358;PMS7003;13506;50.852;20.632;2022-07-30T12:55:02;21.00;20.75;14.00
21358;PMS7003;13506;50.852;20.632;2022-07-30T12:57:52;25.00;20.25;15.00
21358;PMS7003;13506;50.852;20.632;2022-07-30T13:00:23;26.75;23.25;15.25
21358;PMS7003;13506;50.852;20.632;2022-07-30T13:02:54;26.00;22.75;17.25
21358;PMS7003;13506;50.852;20.632;2022-07-30T13:08:09;23.25;19.75;13.50
21358;PMS7003;13506;50.852;20.632;2022-07-30T13:10:37;23.25;21.00;14.50
21358;PMS7003;13506;50.852;20.632;2022-07-30T13:13:04;23.50;22.00;15.25
21358;PMS7003;13506;50.852;20.632;2022-07-30T13:15:33;26.50;24.50;17.25
21358;PMS7003;13506;50.852;20.632;2022-07-30T13:18:01;24.50;22.25;14.75
21358;PMS7003;13506;50.852;20.632;2022-07-30T13:20:28;27.25;27.00;18.50
21358;PMS7003;13506;50.852;20.632;2022-07-30T13:22:56;26.00;23.50;15.75
21358;PMS7003;13506;50.852;20.632;2022-07-30T13:25:23;30.00;25.50;17.25
21358;PMS7003;13506;50.852;20.632;2022-07-30T13:27:51;26.75;25.50;17.00
21358;PMS7003;13506;50.852;20.632;2022-07-30T13:30:19;26.75;25.00;17.00
21358;PMS7003;13506;50.852;20.632;2022-07-30T13:32:48;24.50;24.50;16.75
21358;PMS7003;13506;50.852;20.632;2022-07-30T13:35:15;25.25;24.00;16.50
21358;PMS7003;13506;50.852;20.632;2022-07-30T13:37:43;24.00;22.25;16.75
21358;PMS7003;13506;50.852;20.632;2022-07-30T13:40:10;23.50;23.50;16.25
21358;PMS7003;13506;50.852;20.632;2022-07-30T13:42:38;23.75;21.75;16.50
21358;PMS7003;13506;50.852;20.632;2022-07-30T13:45:07;25.75;24.00;16.50
21358;PMS7003;13506;50.852;20.632;2022-07-30T13:47:35;26.75;24.00;16.00
21358;PMS7003;13506;50.852;20.632;2022-07-30T13:50:05;26.25;24.00;16.75
21358;PMS7003;13506;50.852;20.632;2022-07-30T13:52:33;25.00;21.00;14.25
21358;PMS7003;13506;50.852;20.632;2022-07-30T13:55:01;25.75;23.75;17.50
21358;PMS7003;13506;50.852;20.632;2022-07-30T13:57:28;28.25;24.75;16.25
21358;PMS7003;13506;50.852;20.632;2022-07-30T13:59:56;26.50;25.00;17.00
21358;PMS7003;13506;50.852;20.632;2022-07-30T14:02:24;26.25;24.00;15.00
21358;PMS7003;13506;50.852;20.632;2022-07-30T14:04:52;25.25;23.50;15.50
21358;PMS7003;13506;50.852;20.632;2022-07-30T14:07:21;24.75;24.00;15.25
21358;PMS7003;13506;50.852;20.632;2022-07-30T14:09:49;26.00;23.50;16.00
21358;PMS7003;13506;50.852;20.632;2022-07-30T14:12:16;25.00;24.00;17.00
21358;PMS7003;13506;50.852;20.632;2022-07-30T14:14:44;25.75;22.50;14.25
21358;PMS7003;13506;50.852;20.632;2022-07-30T14:17:12;24.00;22.50;15.25
21358;PMS7003;13506;50.852;20.632;2022-07-30T14:19:40;28.75;26.75;17.50
21358;PMS7003;13506;50.852;20.632;2022-07-30T14:22:08;30.50;26.00;16.75
21358;PMS7003;13506;50.852;20.632;2022-07-30T14:24:37;28.25;25.50;17.75
21358;PMS7003;13506;50.852;20.632;2022-07-30T14:27:04;30.75;28.25;19.50
21358;PMS7003;13506;50.852;20.632;2022-07-30T14:29:32;26.25;22.50;16.00